createdAt,value
2023-01-07T00:03:21.130Z,79.10
2023-01-07T00:08:24.662Z,79.00
2023-01-07T00:13:28.184Z,79.20
2023-01-07T00:18:34.312Z,79.60
2023-01-07T00:23:39.748Z,79.60
2023-01-07T00:28:46.786Z,80.40
2023-01-07T00:34:07.034Z,79.50
2023-01-07T00:39:15.119Z,79.50
2023-01-07T00:44:18.613Z,79.90
2023-01-07T00:49:24.501Z,79.30
2023-01-07T00:54:28.081Z,79.30
2023-01-07T00:59:31.502Z,79.30
2023-01-07T01:04:36.496Z,79.30
2023-01-07T01:09:39.958Z,79.30
2023-01-07T01:14:43.421Z,79.20
2023-01-07T01:19:48.457Z,79.10
2023-01-07T01:24:53.259Z,79.00
2023-01-07T01:29:56.673Z,78.90
2023-01-07T01:35:01.432Z,79.00
2023-01-07T01:40:05.517Z,78.90
2023-01-07T01:45:12.524Z,78.70
2023-01-07T01:50:22.329Z,78.80
2023-01-07T01:55:34.704Z,78.70
2023-01-07T02:00:38.688Z,78.70
2023-01-07T02:05:44.519Z,78.50
2023-01-07T02:10:48.239Z,78.40
2023-01-07T02:16:00.542Z,78.40
2023-01-07T02:21:26.297Z,78.40
2023-01-07T02:26:59.404Z,78.30
2023-01-07T02:32:26.638Z,78.20
2023-01-07T02:37:41.011Z,78.30
2023-01-07T02:42:55.263Z,78.20
2023-01-07T02:48:03.327Z,78.00
2023-01-07T02:53:09.330Z,77.90
2023-01-07T02:58:43.553Z,77.80
2023-01-07T03:04:05.553Z,78.00
2023-01-07T03:09:16.540Z,77.90
2023-01-07T03:14:23.974Z,77.70
2023-01-07T03:19:32.678Z,78.00
2023-01-07T03:24:37.020Z,78.00
2023-01-07T03:29:40.700Z,77.80
2023-01-07T03:34:46.257Z,78.10
2023-01-07T03:39:51.403Z,77.90
2023-01-07T03:44:55.992Z,77.70
2023-01-07T03:50:01.024Z,77.60
2023-01-07T03:55:05.757Z,77.60
2023-01-07T04:00:12.328Z,77.40
2023-01-07T04:05:17.240Z,77.20
2023-01-07T04:10:20.983Z,77.10
2023-01-07T04:15:24.529Z,76.80
2023-01-07T04:20:29.515Z,76.80
2023-01-07T04:25:35.299Z,76.60
2023-01-07T04:30:39.056Z,76.50
2023-01-07T04:35:47.136Z,76.60
2023-01-07T04:40:50.945Z,76.40
2023-01-07T04:45:56.794Z,76.50
2023-01-07T04:51:01.877Z,76.30
2023-01-07T04:56:06.402Z,76.10
2023-01-07T05:01:11.361Z,76.20
2023-01-07T05:06:16.639Z,76.10
2023-01-07T05:11:22.065Z,76.10
2023-01-07T05:16:26.790Z,76.10
2023-01-07T05:21:32.004Z,76.40
2023-01-07T05:26:36.145Z,77.20
2023-01-07T05:31:41.045Z,75.90
2023-01-07T05:36:46.232Z,75.70
2023-01-07T05:41:49.835Z,75.40
2023-01-07T05:46:53.514Z,75.40
2023-01-07T05:51:58.564Z,75.30
2023-01-07T05:57:02.251Z,75.30
2023-01-07T06:02:06.358Z,75.30
2023-01-07T06:07:12.333Z,75.30
2023-01-07T06:12:16.790Z,75.30
2023-01-07T06:17:20.828Z,75.40
2023-01-07T06:22:25.889Z,75.50
2023-01-07T06:27:29.656Z,75.50
2023-01-07T06:32:33.479Z,75.30
2023-01-07T06:37:39.369Z,75.30
2023-01-07T06:42:43.036Z,75.30
2023-01-07T06:47:48.479Z,75.20
2023-01-07T06:52:53.935Z,75.20
2023-01-07T06:57:58.246Z,75.20
2023-01-07T07:03:01.807Z,75.30
2023-01-07T07:08:07.234Z,75.30
2023-01-07T07:13:12.067Z,75.40
2023-01-07T07:18:15.768Z,75.40
2023-01-07T07:23:20.978Z,75.50
2023-01-07T07:28:25.751Z,75.50
2023-01-07T07:33:29.900Z,75.50
2023-01-07T07:38:35.053Z,75.40
2023-01-07T07:43:39.386Z,75.40
2023-01-07T07:48:43.009Z,75.50
2023-01-07T07:53:48.166Z,75.60
2023-01-07T07:58:51.687Z,75.70
2023-01-07T08:03:55.399Z,75.80
2023-01-07T08:09:00.802Z,75.90
2023-01-07T08:14:04.413Z,75.90
2023-01-07T08:19:07.890Z,75.80
2023-01-07T08:24:13.193Z,75.80
2023-01-07T08:29:16.906Z,75.80
2023-01-07T08:34:20.667Z,75.90
2023-01-07T08:39:25.748Z,75.80
2023-01-07T08:44:29.217Z,75.90
2023-01-07T08:49:33.198Z,76.00
2023-01-07T08:54:38.269Z,76.00
2023-01-07T08:59:43.498Z,76.10
2023-01-07T09:04:47.448Z,76.20
2023-01-07T09:09:52.551Z,76.30
2023-01-07T09:14:56.334Z,76.40
2023-01-07T09:20:03.524Z,76.40
2023-01-07T09:25:09.285Z,76.40
2023-01-07T09:30:13.966Z,76.50
2023-01-07T09:35:17.814Z,76.60
2023-01-07T09:40:27.905Z,76.60
2023-01-07T09:45:35.710Z,76.80
2023-01-07T09:50:51.090Z,76.70
2023-01-07T09:56:11.156Z,76.60
2023-01-07T10:01:24.420Z,76.60
2023-01-07T10:06:43.438Z,76.50
2023-01-07T10:12:07.262Z,76.50
2023-01-07T10:17:22.001Z,76.40
2023-01-07T10:22:32.928Z,76.40
2023-01-07T10:27:42.521Z,76.40
2023-01-07T10:32:47.965Z,76.50
2023-01-07T10:37:52.309Z,76.40
2023-01-07T10:43:02.443Z,76.30
2023-01-07T10:48:24.025Z,76.30
2023-01-07T10:53:35.879Z,76.40
2023-01-07T10:58:43.015Z,76.30
2023-01-07T11:03:50.308Z,76.30
2023-01-07T11:08:54.991Z,76.10
2023-01-07T11:14:03.731Z,76.10
2023-01-07T11:19:09.726Z,75.90
2023-01-07T11:24:30.934Z,75.70
2023-01-07T11:29:39.785Z,75.60
2023-01-07T11:34:56.298Z,75.00
2023-01-07T11:40:00.916Z,75.20
2023-01-07T11:45:16.218Z,75.20
2023-01-07T11:50:26.117Z,75.30
2023-01-07T11:55:30.701Z,75.30
2023-01-07T12:00:35.555Z,75.10
2023-01-07T12:05:40.088Z,75.10
2023-01-07T12:10:44.344Z,75.00
2023-01-07T12:15:54.018Z,74.60
2023-01-07T12:21:25.998Z,74.30
2023-01-07T12:26:36.702Z,73.70
2023-01-07T12:31:52.675Z,73.30
2023-01-07T12:37:01.521Z,73.30
2023-01-07T12:42:10.516Z,73.20
2023-01-07T12:47:31.276Z,73.30
2023-01-07T12:52:44.436Z,73.10
2023-01-07T12:57:58.187Z,73.20
2023-01-07T13:03:11.060Z,73.30
2023-01-07T13:08:24.382Z,72.70
2023-01-07T13:13:33.943Z,72.70
2023-01-07T13:18:38.904Z,72.70
2023-01-07T13:24:07.697Z,72.40
2023-01-07T13:29:22.688Z,72.40
2023-01-07T13:34:40.423Z,72.20
2023-01-07T13:40:02.621Z,71.90
2023-01-07T13:45:12.347Z,71.40
2023-01-07T13:50:26.551Z,71.00
2023-01-07T13:55:41.977Z,70.50
2023-01-07T14:01:03.231Z,69.70
2023-01-07T14:06:44.094Z,69.40
2023-01-07T14:12:24.765Z,68.90
2023-01-07T14:17:35.158Z,69.00
2023-01-07T14:22:48.616Z,68.80
2023-01-07T14:28:08.608Z,68.70
2023-01-07T14:33:20.736Z,68.60
2023-01-07T14:39:07.176Z,68.50
2023-01-07T14:44:30.328Z,68.50
2023-01-07T14:50:03.231Z,68.70
2023-01-07T14:55:27.540Z,68.90
2023-01-07T15:01:09.046Z,68.90
2023-01-07T15:06:21.785Z,68.90
2023-01-07T15:11:44.923Z,69.00
2023-01-07T15:16:55.527Z,69.10
2023-01-07T15:22:08.160Z,69.50
2023-01-07T15:27:20.209Z,69.70
2023-01-07T15:32:36.177Z,69.90
2023-01-07T15:37:46.077Z,70.10
2023-01-07T15:42:52.511Z,70.10
2023-01-07T15:48:09.295Z,70.30
2023-01-07T15:53:20.755Z,70.50
2023-01-07T15:58:30.203Z,70.80
2023-01-07T16:03:39.609Z,70.80
2023-01-07T16:08:45.625Z,70.80
2023-01-07T16:13:58.023Z,70.90
2023-01-07T16:19:04.811Z,70.90
2023-01-07T16:24:08.666Z,70.80
2023-01-07T16:29:20.424Z,70.80
2023-01-07T16:34:57.228Z,70.80
2023-01-07T16:40:01.124Z,70.90
2023-01-07T16:45:21.396Z,71.00
2023-01-07T16:50:41.636Z,71.00
2023-01-07T16:55:50.333Z,71.00
2023-01-07T17:00:55.777Z,70.90
2023-01-07T17:06:04.535Z,71.00
2023-01-07T17:11:17.920Z,71.10
2023-01-07T17:16:34.333Z,71.10
2023-01-07T17:21:44.301Z,71.30
2023-01-07T17:26:47.783Z,71.40
2023-01-07T17:31:51.273Z,71.40
2023-01-07T17:36:56.088Z,71.50
2023-01-07T17:42:17.138Z,71.50
2023-01-07T17:47:22.331Z,71.70
2023-01-07T17:52:27.446Z,71.70
2023-01-07T17:57:30.887Z,71.80
2023-01-07T18:02:34.381Z,72.10
2023-01-07T18:07:39.345Z,72.00
2023-01-07T18:12:43.676Z,72.00
2023-01-07T18:17:47.802Z,72.00
2023-01-07T18:22:52.597Z,72.00
2023-01-07T18:27:56.599Z,71.70
2023-01-07T18:33:00.373Z,71.60
2023-01-07T18:38:05.324Z,71.80
2023-01-07T18:43:12.013Z,71.80
2023-01-07T18:48:20.243Z,71.90
2023-01-07T18:53:27.201Z,71.90
2023-01-07T18:58:30.904Z,72.00
2023-01-07T19:03:34.597Z,72.10
2023-01-07T19:08:40.002Z,72.20
2023-01-07T19:13:43.671Z,72.10
2023-01-07T19:18:47.165Z,72.10
2023-01-07T19:23:52.105Z,72.10
2023-01-07T19:28:55.587Z,72.10
2023-01-07T19:33:59.051Z,72.10
2023-01-07T19:39:03.816Z,72.20
2023-01-07T19:44:07.663Z,72.20
2023-01-07T19:49:13.448Z,72.20
2023-01-07T19:54:18.466Z,72.20
2023-01-07T19:59:22.107Z,72.30
2023-01-07T20:04:27.313Z,72.30
2023-01-07T20:09:32.884Z,72.50
2023-01-07T20:14:36.370Z,72.70
2023-01-07T20:19:39.819Z,72.60
2023-01-07T20:24:46.722Z,72.50
2023-01-07T20:29:50.182Z,72.60
2023-01-07T20:34:53.667Z,72.70
2023-01-07T20:39:58.519Z,72.90
2023-01-07T20:45:01.935Z,73.00
2023-01-07T20:50:06.033Z,73.10
2023-01-07T20:55:11.693Z,73.30
2023-01-07T21:00:17.944Z,73.50
2023-01-07T21:05:23.225Z,73.50
2023-01-07T21:10:28.106Z,73.40
2023-01-07T21:15:32.006Z,73.40
2023-01-07T21:20:35.739Z,73.20
2023-01-07T21:25:40.828Z,73.20
2023-01-07T21:30:44.581Z,73.30
2023-01-07T21:35:50.269Z,73.40
2023-01-07T21:40:55.164Z,73.30
2023-01-07T21:46:00.592Z,73.50
2023-01-07T21:51:05.864Z,73.70
2023-01-07T21:56:12.626Z,73.70
2023-01-07T22:01:17.173Z,73.60
2023-01-07T22:06:22.336Z,73.50
2023-01-07T22:11:27.821Z,73.50
2023-01-07T22:16:33.036Z,73.50
2023-01-07T22:21:37.150Z,73.50
2023-01-07T22:26:43.011Z,73.30
2023-01-07T22:31:49.712Z,73.50
2023-01-07T22:36:58.761Z,73.50
2023-01-07T22:42:07.048Z,73.50
2023-01-07T22:47:14.236Z,73.40
2023-01-07T22:52:19.402Z,73.20
2023-01-07T22:57:24.636Z,73.30
2023-01-07T23:02:28.942Z,73.30
2023-01-07T23:07:32.468Z,73.20
2023-01-07T23:12:37.546Z,73.10
2023-01-07T23:17:41.705Z,73.10
2023-01-07T23:22:45.151Z,73.30
2023-01-07T23:27:51.190Z,73.20
2023-01-07T23:32:54.666Z,73.40
2023-01-07T23:37:58.379Z,73.20
2023-01-07T23:43:04.348Z,73.50
2023-01-07T23:48:08.209Z,73.50
2023-01-07T23:53:11.626Z,73.50
2023-01-07T23:58:16.886Z,73.60
